Lykke — DOXE — position and weather

sailwx.info

Track history (hours):
 
Tides and Currents Weather Stations Pressure Air Temp Water Temp Dewpoint Dewpoint Depression Visibility Wind Speed Wind Dir Waves Ship Positions

Lykke

Last reported at 2017-Dec-29 18:45 UTC. Time now 2018-Jan-19 02:06 UTC.
Position N 14°28' W 060°53'.
Warning: this ship's position is 20 days out of date.

Length 16 m.

Type: Pleasure craft. MMSI: 211748430.

Date/timePositionNaut miles runAvg speedWind from/ knotsBaromVisibWave heightAir tempDewpointWater temp
2017-Dec-29 18:45N 14°28' W 060°53'0 0.0
2017-Dec-29 18:21N 14°28' W 060°53'0 0.1
2017-Dec-29 17:57N 14°28' W 060°53'0 0.1
2017-Dec-29 17:25N 14°28' W 060°53'2 4.1
2017-Dec-29 17:00N 14°27' W 060°54'4 6.2
2017-Dec-29 16:24N 14°27' W 060°57'0 0.0
2017-Dec-27 18:26N 14°27' W 060°58'3 6.9
2017-Dec-27 18:00N 14°27' W 060°55'3 0.1
2017-Dec-26 15:53N 14°28' W 060°52'0 0.0
2017-Dec-26 15:29N 14°28' W 060°52'0 0.0
2017-Dec-26 14:59N 14°28' W 060°52'0 0.0
2017-Dec-26 14:29N 14°28' W 060°52'  
2017-Dec-23 22:04N 14°26' W 060°53'0 0.0
2017-Dec-23 21:49N 14°26' W 060°53'0 0.1
2017-Dec-23 21:30N 14°26' W 060°53'0 0.1
2017-Dec-23 20:30N 14°26' W 060°53'2 2.8
2017-Dec-23 19:58N 14°28' W 060°53'1 0.0
2017-Dec-21 17:30N 14°28' W 060°52'0 0.0
2017-Dec-21 16:59N 14°28' W 060°52'1 1.8
2017-Dec-21 16:30N 14°28' W 060°53'1 0.0
2017-Dec-19 21:12N 14°26' W 060°53'0 0.0
2017-Dec-19 20:59N 14°26' W 060°53'0 0.0
2017-Dec-19 20:26N 14°26' W 060°53'0 0.0
2017-Dec-19 19:59N 14°26' W 060°53'1 1.3
2017-Dec-19 19:30N 14°26' W 060°54'3 6.1
2017-Dec-19 19:00N 14°23' W 060°55'  
Track history (hours):
 
Tides and Currents Weather Stations Pressure Air Temp Water Temp Dewpoint Dewpoint Depression Visibility Wind Speed Wind Dir Waves Ship Positions

Lykke

Last reported at 2017-Dec-29 18:45 UTC. Time now 2018-Jan-19 02:06 UTC.
Position N 14°28' W 060°53'.
Warning: this ship's position is 20 days out of date.

Length 16 m.

Type: Pleasure craft. MMSI: 211748430.

Date/timePositionNaut miles runAvg speedWind from/ knotsBaromVisibWave heightAir tempDewpointWater temp
2017-Dec-29 18:45N 14°28' W 060°53'0 0.0
2017-Dec-29 18:21N 14°28' W 060°53'0 0.1
2017-Dec-29 17:57N 14°28' W 060°53'0 0.1
2017-Dec-29 17:25N 14°28' W 060°53'2 4.1
2017-Dec-29 17:00N 14°27' W 060°54'4 6.2
2017-Dec-29 16:24N 14°27' W 060°57'0 0.0
2017-Dec-27 18:26N 14°27' W 060°58'3 6.9
2017-Dec-27 18:00N 14°27' W 060°55'3 0.1
2017-Dec-26 15:53N 14°28' W 060°52'0 0.0
2017-Dec-26 15:29N 14°28' W 060°52'0 0.0
2017-Dec-26 14:59N 14°28' W 060°52'0 0.0
2017-Dec-26 14:29N 14°28' W 060°52'  
2017-Dec-23 22:04N 14°26' W 060°53'0 0.0
2017-Dec-23 21:49N 14°26' W 060°53'0 0.1
2017-Dec-23 21:30N 14°26' W 060°53'0 0.1
2017-Dec-23 20:30N 14°26' W 060°53'2 2.8
2017-Dec-23 19:58N 14°28' W 060°53'1 0.0
2017-Dec-21 17:30N 14°28' W 060°52'0 0.0
2017-Dec-21 16:59N 14°28' W 060°52'1 1.8
2017-Dec-21 16:30N 14°28' W 060°53'1 0.0
2017-Dec-19 21:12N 14°26' W 060°53'0 0.0
2017-Dec-19 20:59N 14°26' W 060°53'0 0.0
2017-Dec-19 20:26N 14°26' W 060°53'0 0.0
2017-Dec-19 19:59N 14°26' W 060°53'1 1.3
2017-Dec-19 19:30N 14°26' W 060°54'3 6.1
2017-Dec-19 19:00N 14°23' W 060°55'  

Dump ship's entire track history